Time;durP1;ratioP1;P1;durP2;ratioP2;P2;SDS_P1;SDS_P2;PMS_P1;PMS_P2;Temp;Humidity;BMP_temperature;BMP_pressure;BME280_temperature;BME280_humidity;BME280_pressure;Samples;Min_cycle;Max_cycle;Signal;HPM_P1;HPM_P2
2023/07/26 00:00:07;;;;;;;6.15;2.08;;;12.80;99.90;;;;;;5093789;28;20040;-57
2023/07/26 00:02:33;;;;;;;5.45;2.53;;;12.70;99.90;;;;;;5081586;28;20049;-57
2023/07/26 00:04:59;;;;;;;7.03;2.25;;;12.80;99.90;;;;;;5082119;28;20492;-58
2023/07/26 00:07:24;;;;;;;6.32;2.30;;;12.80;99.90;;;;;;5081831;28;20048;-56
2023/07/26 00:09:50;;;;;;;6.45;2.30;;;12.90;99.90;;;;;;5081808;28;20057;-58
2023/07/26 00:12:15;;;;;;;5.53;2.08;;;12.80;99.90;;;;;;5081971;28;20051;-59
2023/07/26 00:14:42;;;;;;;7.75;2.83;;;12.90;99.90;;;;;;5081393;28;20134;-58
2023/07/26 00:17:07;;;;;;;4.57;1.90;;;13.00;99.90;;;;;;5082020;28;20407;-57
2023/07/26 00:19:33;;;;;;;4.80;2.10;;;13.10;99.90;;;;;;5080959;28;20037;-57
2023/07/26 00:21:59;;;;;;;6.32;1.98;;;12.90;99.90;;;;;;5081977;28;20043;-56
2023/07/26 00:24:24;;;;;;;7.35;2.60;;;13.00;99.90;;;;;;5081495;28;20036;-58
2023/07/26 00:26:50;;;;;;;7.90;2.65;;;12.90;99.90;;;;;;5081467;28;20044;-58
2023/07/26 00:29:16;;;;;;;6.72;2.50;;;12.80;99.90;;;;;;5081556;28;20052;-59
2023/07/26 00:31:42;;;;;;;7.28;2.47;;;12.90;99.90;;;;;;5081327;28;20131;-57
2023/07/26 00:34:08;;;;;;;6.20;2.10;;;13.00;99.90;;;;;;5081606;28;20036;-56
2023/07/26 00:36:33;;;;;;;5.93;2.35;;;13.10;99.90;;;;;;5081082;28;20127;-56
2023/07/26 00:38:59;;;;;;;5.22;2.47;;;13.10;99.90;;;;;;5081774;28;20576;-56
2023/07/26 00:41:25;;;;;;;6.82;2.40;;;13.20;99.90;;;;;;5062921;28;20040;-56
2023/07/26 00:43:50;;;;;;;6.25;2.53;;;13.10;99.90;;;;;;5081264;28;20036;-56
2023/07/26 00:46:17;;;;;;;5.32;2.10;;;13.00;99.90;;;;;;5081219;28;20043;-56
2023/07/26 00:48:43;;;;;;;5.60;2.50;;;12.80;99.90;;;;;;5080602;28;20044;-56
2023/07/26 00:51:09;;;;;;;7.93;3.97;;;12.80;99.90;;;;;;5081234;28;20492;-57
2023/07/26 00:53:35;;;;;;;6.88;4.15;;;12.80;99.90;;;;;;5080819;28;20040;-56
2023/07/26 00:56:01;;;;;;;7.13;3.88;;;12.70;99.90;;;;;;5081545;28;20037;-58
2023/07/26 00:58:27;;;;;;;7.15;3.30;;;12.80;99.90;;;;;;5100305;28;20047;-64
2023/07/26 01:00:54;;;;;;;8.18;3.08;;;12.60;99.90;;;;;;5101216;28;20067;-66
2023/07/26 01:03:20;;;;;;;7.22;2.47;;;12.60;99.90;;;;;;5101193;28;20048;-62
2023/07/26 01:06:19;;;;;;;6.80;2.55;;;12.60;99.90;;;;;;5100983;28;20078;-62
2023/07/26 01:09:32;;;;;;;12.18;3.92;;;12.60;99.90;;;;;;5101266;28;20112;-60
2023/07/26 01:12:06;;;;;;;6.50;2.72;;;12.60;99.90;;;;;;5023535;28;20101;-60
2023/07/26 01:14:40;;;;;;;10.13;3.22;;;12.60;99.90;;;;;;5101240;28;20028;-60
2023/07/26 01:17:06;;;;;;;7.55;3.05;;;12.70;99.90;;;;;;5101326;28;20048;-58
2023/07/26 01:19:32;;;;;;;6.93;2.83;;;12.70;99.90;;;;;;5100475;28;20078;-58
2023/07/26 01:21:59;;;;;;;10.13;3.33;;;12.70;99.90;;;;;;5101203;28;20456;-58
2023/07/26 01:24:25;;;;;;;9.05;3.35;;;12.70;99.90;;;;;;5100448;28;20051;-58
2023/07/26 01:26:50;;;;;;;9.05;3.40;;;12.70;99.90;;;;;;5065993;28;20098;-57
2023/07/26 01:29:16;;;;;;;8.05;2.55;;;12.80;99.90;;;;;;5100783;28;20043;-58
2023/07/26 01:31:42;;;;;;;9.93;2.60;;;12.70;99.90;;;;;;5082580;28;20044;-58
2023/07/26 01:34:09;;;;;;;7.30;2.33;;;12.80;99.90;;;;;;5101168;28;20475;-58
2023/07/26 01:36:35;;;;;;;6.65;2.38;;;12.80;99.90;;;;;;5100236;28;20077;-58
2023/07/26 01:39:03;;;;;;;6.60;3.35;;;12.70;99.90;;;;;;5101420;28;20044;-58
2023/07/26 01:41:30;;;;;;;6.75;2.63;;;12.70;99.90;;;;;;5100596;28;20044;-57
2023/07/26 01:43:56;;;;;;;6.75;2.20;;;12.70;99.90;;;;;;5082836;28;20611;-58
2023/07/26 01:46:21;;;;;;;9.88;2.50;;;12.70;99.90;;;;;;5100608;28;20055;-58
2023/07/26 01:48:47;;;;;;;9.40;2.50;;;12.70;99.90;;;;;;5100109;28;20036;-57
2023/07/26 01:51:13;;;;;;;8.48;2.30;;;12.50;99.90;;;;;;5100946;28;20036;-57
2023/07/26 01:53:38;;;;;;;6.97;2.25;;;12.40;99.90;;;;;;5100481;28;20036;-58
2023/07/26 01:56:05;;;;;;;8.65;2.40;;;12.40;99.90;;;;;;5101293;28;20067;-57
2023/07/26 01:58:30;;;;;;;7.55;2.55;;;12.40;99.90;;;;;;5099909;28;20052;-57
2023/07/26 02:00:56;;;;;;;7.80;2.67;;;12.40;99.90;;;;;;5100837;28;20040;-58
2023/07/26 02:03:22;;;;;;;7.68;2.35;;;12.50;99.90;;;;;;5100139;28;20041;-55
2023/07/26 02:05:48;;;;;;;7.40;2.22;;;12.50;99.90;;;;;;5100682;28;20368;-57
2023/07/26 02:08:16;;;;;;;7.78;3.20;;;12.50;99.90;;;;;;5100852;28;20044;-58
2023/07/26 02:10:42;;;;;;;6.68;2.50;;;12.50;99.90;;;;;;5100500;28;20044;-57
2023/07/26 02:13:08;;;;;;;5.63;2.20;;;12.50;99.90;;;;;;5101079;28;20044;-57
2023/07/26 02:15:34;;;;;;;7.07;2.75;;;12.50;99.90;;;;;;5100147;28;20059;-56
2023/07/26 02:18:00;;;;;;;6.25;2.58;;;12.40;99.90;;;;;;5099859;28;20059;-57
2023/07/26 02:20:25;;;;;;;6.93;2.53;;;12.50;99.90;;;;;;5100574;28;20083;-57
2023/07/26 02:22:52;;;;;;;6.55;2.80;;;12.50;99.90;;;;;;5100138;28;20040;-57
2023/07/26 02:25:17;;;;;;;8.95;2.80;;;12.50;99.90;;;;;;5100798;28;20083;-57
2023/07/26 02:27:43;;;;;;;10.68;3.30;;;12.50;99.90;;;;;;5100029;28;20382;-57
2023/07/26 02:30:09;;;;;;;7.30;2.60;;;12.40;99.90;;;;;;5100852;28;20079;-57
2023/07/26 02:32:35;;;;;;;7.57;2.63;;;12.30;99.90;;;;;;5099707;28;20137;-57
2023/07/26 02:35:00;;;;;;;5.38;2.47;;;12.30;99.90;;;;;;5101424;28;20051;-57
2023/07/26 02:37:26;;;;;;;9.55;3.20;;;12.40;99.90;;;;;;5103674;28;20063;-57
2023/07/26 02:39:52;;;;;;;9.68;3.20;;;12.40;99.90;;;;;;5085609;28;20557;-57
2023/07/26 02:42:18;;;;;;;9.38;2.95;;;12.30;99.90;;;;;;5103763;28;20089;-56
2023/07/26 02:44:47;;;;;;;8.82;2.58;;;12.20;99.90;;;;;;5103792;28;20040;-56
2023/07/26 02:47:13;;;;;;;7.15;2.55;;;12.30;99.90;;;;;;5104082;28;20044;-57
2023/07/26 02:49:38;;;;;;;8.30;2.90;;;12.20;99.90;;;;;;5103184;28;20032;-57
2023/07/26 02:52:05;;;;;;;6.47;2.75;;;12.40;99.90;;;;;;5104135;28;20070;-57
2023/07/26 02:54:30;;;;;;;7.50;3.10;;;12.20;99.90;;;;;;5103527;28;20051;-57
2023/07/26 02:56:56;;;;;;;8.13;3.28;;;12.30;99.90;;;;;;5096703;28;20112;-57
2023/07/26 02:59:22;;;;;;;7.60;2.95;;;12.30;99.90;;;;;;5083097;28;20120;-57
2023/07/26 03:01:49;;;;;;;7.68;2.90;;;12.30;99.90;;;;;;5082767;28;20455;-57
2023/07/26 03:04:14;;;;;;;8.50;3.33;;;12.30;99.90;;;;;;5083154;28;20036;-57
2023/07/26 03:06:40;;;;;;;10.07;2.90;;;12.20;99.90;;;;;;5083017;28;20049;-56
2023/07/26 03:09:06;;;;;;;7.53;2.63;;;12.30;99.90;;;;;;5083631;28;20040;-57
2023/07/26 03:11:32;;;;;;;8.98;3.13;;;12.30;99.90;;;;;;5082996;28;20063;-57
2023/07/26 03:13:58;;;;;;;8.07;3.00;;;12.30;99.90;;;;;;5083190;28;20036;-57
2023/07/26 03:16:23;;;;;;;7.75;3.35;;;12.40;99.90;;;;;;5082632;28;20123;-57
2023/07/26 03:18:49;;;;;;;7.75;3.00;;;12.40;99.90;;;;;;5082660;28;20105;-57
2023/07/26 03:21:15;;;;;;;6.95;3.10;;;12.40;99.90;;;;;;5083107;28;20048;-56
2023/07/26 03:23:41;;;;;;;8.15;3.22;;;12.40;99.90;;;;;;5064528;28;20045;-56
2023/07/26 03:26:06;;;;;;;11.55;4.03;;;12.30;99.90;;;;;;5083366;28;20045;-57
2023/07/26 03:28:32;;;;;;;8.55;3.15;;;12.40;99.90;;;;;;5082561;28;20048;-57
2023/07/26 03:30:59;;;;;;;8.13;2.97;;;12.30;99.90;;;;;;5082689;28;20040;-57
2023/07/26 03:33:25;;;;;;;6.22;2.97;;;12.30;99.90;;;;;;5082776;28;20076;-58
2023/07/26 03:35:51;;;;;;;8.50;3.08;;;12.30;99.90;;;;;;5082456;28;20515;-58
2023/07/26 03:38:17;;;;;;;8.00;3.78;;;12.30;99.90;;;;;;5082945;28;20044;-58
2023/07/26 03:40:43;;;;;;;6.45;2.88;;;12.30;99.90;;;;;;5082263;28;20045;-58
2023/07/26 03:43:08;;;;;;;6.68;2.95;;;12.30;99.90;;;;;;5082939;28;20044;-57
2023/07/26 03:45:34;;;;;;;7.80;2.95;;;12.20;99.90;;;;;;5081596;28;20033;-58
2023/07/26 03:48:00;;;;;;;6.57;2.88;;;12.30;99.90;;;;;;5081656;28;20508;-57
2023/07/26 03:50:26;;;;;;;7.40;3.20;;;12.30;99.90;;;;;;5082345;28;20084;-58
2023/07/26 03:52:52;;;;;;;7.78;3.03;;;12.40;99.90;;;;;;5082110;28;20048;-58
2023/07/26 03:55:17;;;;;;;8.70;2.58;;;12.30;99.90;;;;;;5082326;28;20087;-57
2023/07/26 03:57:43;;;;;;;8.10;2.75;;;12.20;99.90;;;;;;5095299;28;20075;-58
2023/07/26 04:00:09;;;;;;;6.88;2.30;;;12.30;99.90;;;;;;5102559;28;20051;-57
2023/07/26 04:02:35;;;;;;;7.70;2.80;;;12.30;99.90;;;;;;5083977;28;20044;-58
2023/07/26 04:05:01;;;;;;;7.68;2.72;;;12.30;99.90;;;;;;5102534;28;20063;-57
2023/07/26 04:07:26;;;;;;;6.88;2.75;;;12.40;99.90;;;;;;5083920;28;20059;-58
2023/07/26 04:09:52;;;;;;;6.20;2.63;;;12.30;99.90;;;;;;5083708;28;20048;-57
2023/07/26 04:12:18;;;;;;;6.78;2.25;;;12.30;99.90;;;;;;5102088;28;20048;-57
2023/07/26 04:14:44;;;;;;;6.15;2.65;;;12.30;99.90;;;;;;5083474;28;20040;-57
2023/07/26 04:17:09;;;;;;;8.30;2.78;;;12.30;99.90;;;;;;5102437;28;20505;-57
2023/07/26 04:19:35;;;;;;;5.28;2.22;;;12.20;99.90;;;;;;5101201;28;20519;-57
2023/07/26 04:22:01;;;;;;;7.75;2.88;;;12.40;99.90;;;;;;5102312;28;20050;-58
2023/07/26 04:24:27;;;;;;;6.55;2.67;;;12.30;99.90;;;;;;5101823;28;20044;-57
2023/07/26 04:26:53;;;;;;;7.88;2.72;;;12.40;99.90;;;;;;5101948;28;20051;-57
2023/07/26 04:29:19;;;;;;;7.47;3.03;;;12.40;99.90;;;;;;5101599;28;20032;-57
2023/07/26 04:31:44;;;;;;;7.93;3.10;;;12.40;99.90;;;;;;5101701;28;20067;-57
2023/07/26 04:34:12;;;;;;;7.97;3.20;;;12.40;99.90;;;;;;5102186;28;20097;-57
2023/07/26 04:36:38;;;;;;;8.77;3.08;;;12.40;99.90;;;;;;5101542;28;20117;-57
2023/07/26 04:39:04;;;;;;;6.20;3.00;;;12.40;99.90;;;;;;5101583;28;20047;-57
2023/07/26 04:41:30;;;;;;;12.13;3.70;;;12.50;99.90;;;;;;5101389;28;20051;-57
2023/07/26 04:43:55;;;;;;;10.10;3.33;;;12.50;99.90;;;;;;5101443;28;20043;-57
2023/07/26 04:46:21;;;;;;;8.05;3.17;;;12.60;99.90;;;;;;5101653;28;20047;-57
2023/07/26 04:48:47;;;;;;;10.50;3.50;;;12.70;99.90;;;;;;5101199;28;20552;-57
2023/07/26 04:51:13;;;;;;;7.18;3.25;;;12.60;99.90;;;;;;5101396;28;20074;-57
2023/07/26 04:53:39;;;;;;;9.45;3.53;;;12.70;99.90;;;;;;5101203;28;20078;-57
2023/07/26 04:56:05;;;;;;;7.53;3.45;;;12.80;99.90;;;;;;5102028;28;20048;-57
2023/07/26 04:58:30;;;;;;;6.63;3.45;;;12.80;99.90;;;;;;5079777;28;20048;-57
2023/07/26 05:00:56;;;;;;;7.78;3.60;;;12.90;99.90;;;;;;5080995;28;20074;-56
2023/07/26 05:03:22;;;;;;;6.72;3.50;;;12.90;99.90;;;;;;5080946;28;20055;-56
2023/07/26 05:05:51;;;;;;;9.15;3.40;;;13.00;99.90;;;;;;5080824;28;20037;-56
2023/07/26 05:08:17;;;;;;;7.72;3.47;;;13.20;99.90;;;;;;5081276;28;20060;-56
2023/07/26 05:10:47;;;;;;;8.23;3.38;;;13.30;99.90;;;;;;5080468;28;20060;-57
2023/07/26 05:13:12;;;;;;;8.73;3.25;;;13.40;99.90;;;;;;5081334;28;20055;-57
2023/07/26 05:15:38;;;;;;;9.38;3.47;;;13.30;99.90;;;;;;5080488;28;20064;-57
2023/07/26 05:18:04;;;;;;;9.23;3.85;;;13.60;99.90;;;;;;5078976;28;20048;-57
2023/07/26 05:20:29;;;;;;;7.97;3.17;;;13.70;99.90;;;;;;5058948;28;20450;-57
2023/07/26 05:22:55;;;;;;;7.28;3.15;;;13.80;99.90;;;;;;5058881;28;20044;-57
2023/07/26 05:25:21;;;;;;;7.75;3.33;;;13.80;99.90;;;;;;5058814;28;20155;-57
2023/07/26 05:27:47;;;;;;;8.05;3.08;;;13.80;99.90;;;;;;5076583;28;20051;-57
2023/07/26 05:30:19;;;;;;;5.97;2.30;;;13.80;99.90;;;;;;5076898;28;20587;-57
2023/07/26 05:32:45;;;;;;;6.30;2.67;;;13.70;99.90;;;;;;5076854;28;20093;-57
2023/07/26 05:35:14;;;;;;;7.00;2.72;;;13.60;99.90;;;;;;5076881;28;20041;-57
2023/07/26 05:37:40;;;;;;;8.77;2.78;;;13.50;99.90;;;;;;5058481;28;20709;-57
2023/07/26 05:40:06;;;;;;;6.35;2.30;;;13.50;99.90;;;;;;5076406;28;20072;-57
2023/07/26 05:42:32;;;;;;;7.13;2.60;;;13.60;99.90;;;;;;5058328;28;20083;-56
2023/07/26 05:44:58;;;;;;;8.65;3.20;;;13.40;99.90;;;;;;5077163;28;20480;-57
2023/07/26 05:47:24;;;;;;;7.70;2.40;;;13.40;99.90;;;;;;5061086;28;20127;-57
2023/07/26 05:49:50;;;;;;;6.25;2.50;;;13.30;99.90;;;;;;5076052;28;20048;-57
2023/07/26 05:52:16;;;;;;;6.10;2.60;;;13.30;99.90;;;;;;5076727;28;20044;-57
2023/07/26 05:54:42;;;;;;;7.68;2.75;;;13.30;99.90;;;;;;5076255;28;20052;-58
2023/07/26 05:57:08;;;;;;;5.60;2.03;;;13.40;99.90;;;;;;5085417;28;20044;-58
2023/07/26 05:59:33;;;;;;;6.30;2.22;;;13.40;99.90;;;;;;5096810;28;20044;-57
2023/07/26 06:02:00;;;;;;;6.00;2.22;;;13.40;99.90;;;;;;5096376;28;20068;-57
2023/07/26 06:04:30;;;;;;;6.10;1.85;;;13.30;99.90;;;;;;5097451;28;20090;-57
2023/07/26 06:06:56;;;;;;;6.60;1.90;;;13.30;99.90;;;;;;5096128;28;20040;-57
2023/07/26 06:09:23;;;;;;;7.70;2.22;;;13.20;99.90;;;;;;5098818;28;20052;-57
2023/07/26 06:11:48;;;;;;;6.57;2.13;;;13.30;99.90;;;;;;5100262;28;20050;-57
2023/07/26 06:14:14;;;;;;;4.57;1.85;;;13.20;99.90;;;;;;5100642;28;20072;-56
2023/07/26 06:16:40;;;;;;;6.57;1.90;;;13.10;99.90;;;;;;5100021;28;20084;-56
2023/07/26 06:19:06;;;;;;;7.20;2.25;;;13.20;99.90;;;;;;5099553;28;20080;-56
2023/07/26 06:21:33;;;;;;;8.68;2.30;;;13.30;99.90;;;;;;5101067;28;20040;-58
2023/07/26 06:23:59;;;;;;;7.35;2.05;;;13.40;99.90;;;;;;5100198;28;20083;-57
2023/07/26 06:26:25;;;;;;;6.30;2.20;;;13.50;99.90;;;;;;5100351;28;20032;-58
2023/07/26 06:28:50;;;;;;;5.93;2.20;;;13.60;99.90;;;;;;5065396;28;20062;-58
2023/07/26 06:31:16;;;;;;;9.02;2.95;;;13.70;99.90;;;;;;5099681;28;20037;-58
2023/07/26 06:33:42;;;;;;;6.65;2.28;;;13.80;99.90;;;;;;5100276;28;20044;-58
2023/07/26 06:36:07;;;;;;;6.35;2.63;;;13.70;99.90;;;;;;5099739;28;20127;-59
2023/07/26 06:38:33;;;;;;;4.60;1.90;;;13.70;99.90;;;;;;5100217;28;20036;-59
2023/07/26 06:41:00;;;;;;;8.05;2.05;;;13.60;99.90;;;;;;5099505;28;20044;-59
2023/07/26 06:43:26;;;;;;;5.85;1.80;;;13.60;99.90;;;;;;5099840;28;20453;-58
2023/07/26 06:45:52;;;;;;;5.80;1.70;;;13.80;99.90;;;;;;5100230;28;20099;-59
2023/07/26 06:48:19;;;;;;;5.18;1.83;;;14.20;99.90;;;;;;5099602;28;20052;-59
2023/07/26 06:50:44;;;;;;;8.43;2.47;;;14.20;99.90;;;;;;5096201;28;20051;-59
2023/07/26 06:53:10;;;;;;;5.80;2.10;;;14.40;99.90;;;;;;5069670;28;20040;-59
2023/07/26 06:55:37;;;;;;;4.80;2.03;;;14.50;99.90;;;;;;5089927;28;20039;-59
2023/07/26 06:58:03;;;;;;;5.63;1.90;;;14.70;99.90;;;;;;5088360;28;20069;-59
2023/07/26 07:00:28;;;;;;;5.22;1.92;;;14.70;99.90;;;;;;5090334;28;20040;-62
2023/07/26 07:03:02;;;;;;;6.72;1.98;;;14.30;99.90;;;;;;5088867;28;20036;-59
2023/07/26 07:05:30;;;;;;;4.93;1.67;;;14.30;99.90;;;;;;5083236;28;20043;-58
2023/07/26 07:07:56;;;;;;;6.55;2.55;;;14.20;99.90;;;;;;5079127;28;20048;-58
2023/07/26 07:10:22;;;;;;;6.18;1.88;;;14.40;99.90;;;;;;5079308;28;20124;-59
2023/07/26 07:12:48;;;;;;;6.07;2.20;;;14.40;99.90;;;;;;5079436;28;20038;-59
2023/07/26 07:15:14;;;;;;;6.22;2.38;;;14.50;99.90;;;;;;5078857;28;20120;-59
2023/07/26 07:17:40;;;;;;;6.18;1.95;;;14.30;99.90;;;;;;5078864;28;20095;-59
2023/07/26 07:20:10;;;;;;;5.50;2.05;;;14.40;99.90;;;;;;5078009;28;20109;-59
2023/07/26 07:22:36;;;;;;;4.55;1.80;;;14.60;99.90;;;;;;5078825;28;20048;-58
2023/07/26 07:25:02;;;;;;;5.63;1.80;;;14.70;99.90;;;;;;5078913;28;20055;-58
2023/07/26 07:27:28;;;;;;;4.72;1.95;;;14.50;99.90;;;;;;5078665;28;20078;-58
2023/07/26 07:29:54;;;;;;;5.07;1.80;;;14.50;99.90;;;;;;5079115;28;20075;-59
2023/07/26 07:32:21;;;;;;;5.43;1.83;;;14.70;99.90;;;;;;5084145;28;20132;-58
2023/07/26 07:34:47;;;;;;;5.85;1.80;;;14.70;99.90;;;;;;5088995;28;20059;-58
2023/07/26 07:37:13;;;;;;;5.70;2.05;;;14.80;99.90;;;;;;5069650;28;20041;-58
2023/07/26 07:39:38;;;;;;;6.90;1.95;;;15.00;99.90;;;;;;5095293;28;20107;-58
2023/07/26 07:42:05;;;;;;;4.93;1.73;;;14.90;99.90;;;;;;5098264;28;20086;-58
2023/07/26 07:44:31;;;;;;;4.53;1.48;;;14.90;99.90;;;;;;5098802;28;20145;-58
2023/07/26 07:46:57;;;;;;;4.80;1.60;;;15.10;99.90;;;;;;5099158;28;20139;-59
2023/07/26 07:49:23;;;;;;;4.45;1.65;;;15.20;99.90;;;;;;5095620;28;20082;-58
2023/07/26 07:51:49;;;;;;;4.82;1.90;;;15.40;99.90;;;;;;5099188;28;20482;-59
2023/07/26 07:54:15;;;;;;;4.93;1.55;;;15.40;99.90;;;;;;5097938;28;20064;-59
2023/07/26 07:56:40;;;;;;;5.60;1.70;;;15.40;99.90;;;;;;5094049;28;20048;-56
2023/07/26 07:59:06;;;;;;;3.58;1.38;;;15.30;99.90;;;;;;5077539;28;20416;-56
2023/07/26 08:01:33;;;;;;;4.13;1.42;;;15.40;99.90;;;;;;5078209;28;20175;-56
2023/07/26 08:03:59;;;;;;;3.22;1.27;;;15.50;99.90;;;;;;5077882;28;20076;-58
2023/07/26 08:06:29;;;;;;;2.85;1.10;;;15.50;99.90;;;;;;5077110;28;20130;-56
2023/07/26 08:08:55;;;;;;;4.25;1.25;;;15.70;99.90;;;;;;5089791;28;20052;-58
2023/07/26 08:11:21;;;;;;;4.47;1.73;;;15.70;99.90;;;;;;5098214;28;20040;-58
2023/07/26 08:13:47;;;;;;;4.40;1.30;;;15.70;99.90;;;;;;5098326;28;20066;-57
2023/07/26 08:16:13;;;;;;;5.50;1.98;;;16.10;99.90;;;;;;5098281;28;20543;-58
2023/07/26 08:18:39;;;;;;;5.90;1.70;;;15.90;99.90;;;;;;5096470;28;20055;-57
2023/07/26 08:21:06;;;;;;;5.07;1.77;;;16.00;99.90;;;;;;5097197;28;20099;-56
2023/07/26 08:23:32;;;;;;;4.30;1.73;;;16.10;99.90;;;;;;5097407;28;20040;-57
2023/07/26 08:26:05;;;;;;;6.40;1.80;;;16.00;99.90;;;;;;5081776;28;20071;-57
2023/07/26 08:28:31;;;;;;;5.03;1.60;;;16.20;99.90;;;;;;5097963;28;20063;-58
2023/07/26 08:30:57;;;;;;;6.20;1.92;;;16.40;99.90;;;;;;5100120;28;20051;-57
2023/07/26 08:33:23;;;;;;;4.25;1.60;;;16.40;99.90;;;;;;5099872;28;20510;-57
2023/07/26 08:35:48;;;;;;;4.63;1.60;;;16.50;99.90;;;;;;5100746;28;20036;-57
2023/07/26 08:38:14;;;;;;;4.35;1.50;;;16.50;99.90;;;;;;5082563;28;20041;-56
2023/07/26 08:40:47;;;;;;;4.20;1.58;;;16.60;99.90;;;;;;5100177;28;20053;-58
2023/07/26 08:43:14;;;;;;;3.08;1.40;;;16.60;99.90;;;;;;5101062;28;20054;-57
2023/07/26 08:45:44;;;;;;;4.32;1.70;;;16.50;99.90;;;;;;5081685;28;20048;-58
2023/07/26 08:48:10;;;;;;;5.88;2.20;;;16.50;99.90;;;;;;5100364;28;20040;-57
2023/07/26 08:50:39;;;;;;;4.80;1.50;;;16.30;99.90;;;;;;5099984;28;20131;-58
2023/07/26 08:53:05;;;;;;;4.97;1.65;;;16.40;99.90;;;;;;5082212;28;20408;-57
2023/07/26 08:55:32;;;;;;;5.30;1.95;;;16.30;99.90;;;;;;5100831;28;20043;-57
2023/07/26 08:57:58;;;;;;;5.43;2.00;;;16.70;99.90;;;;;;5084055;28;20383;-58
2023/07/26 09:00:29;;;;;;;5.65;2.20;;;16.50;99.90;;;;;;5080728;28;20408;-57
2023/07/26 09:02:57;;;;;;;7.18;2.33;;;16.50;99.90;;;;;;5079553;28;20048;-59
2023/07/26 09:05:23;;;;;;;4.63;1.88;;;16.50;99.90;;;;;;5080098;28;20071;-58
2023/07/26 09:07:51;;;;;;;5.43;1.88;;;16.80;99.90;;;;;;5079781;28;20036;-58
2023/07/26 09:10:28;;;;;;;5.40;2.20;;;17.10;99.90;;;;;;5080053;28;20048;-58
2023/07/26 09:13:11;;;;;;;6.82;2.75;;;17.20;99.90;;;;;;5080364;28;20044;-57
2023/07/26 09:15:38;;;;;;;5.25;1.80;;;17.70;99.90;;;;;;5079510;28;20044;-58
2023/07/26 09:18:04;;;;;;;5.20;2.03;;;17.20;99.90;;;;;;5079765;28;20055;-58
2023/07/26 09:20:31;;;;;;;5.15;2.20;;;17.10;99.90;;;;;;5079398;28;20064;-57
2023/07/26 09:23:04;;;;;;;5.93;1.95;;;16.80;99.90;;;;;;5079645;28;20040;-58
2023/07/26 09:25:44;;;;;;;4.45;1.55;;;16.80;99.90;;;;;;5079999;28;20530;-58
2023/07/26 09:28:14;;;;;;;4.60;1.80;;;17.00;99.90;;;;;;5079213;28;20052;-58
2023/07/26 09:30:42;;;;;;;5.82;2.05;;;17.20;99.90;;;;;;5080122;28;20045;-58
2023/07/26 09:33:09;;;;;;;5.63;2.28;;;17.20;99.90;;;;;;5079081;28;20041;-58
2023/07/26 09:36:01;;;;;;;4.63;1.95;;;17.40;99.90;;;;;;5079730;28;20055;-57
2023/07/26 09:38:27;;;;;;;6.13;2.28;;;17.50;99.90;;;;;;5076142;28;20080;-58
2023/07/26 09:40:52;;;;;;;5.90;2.42;;;17.50;99.90;;;;;;5078920;28;20047;-58
2023/07/26 09:43:29;;;;;;;6.50;2.35;;;17.20;99.90;;;;;;5079960;28;20041;-58
2023/07/26 09:46:02;;;;;;;5.70;2.00;;;17.70;99.90;;;;;;5083343;28;20096;-58
2023/07/26 09:48:28;;;;;;;6.88;2.30;;;17.70;99.90;;;;;;5065345;28;20073;-58
2023/07/26 09:50:55;;;;;;;5.75;2.28;;;17.70;99.90;;;;;;5083641;28;20064;-58
2023/07/26 09:53:22;;;;;;;6.05;2.13;;;17.70;99.90;;;;;;5083396;28;20638;-60
2023/07/26 09:55:49;;;;;;;6.50;2.38;;;17.80;99.90;;;;;;5084236;28;20056;-59
2023/07/26 09:58:19;;;;;;;6.15;2.30;;;17.50;99.90;;;;;;5100968;28;20044;-58
2023/07/26 10:00:48;;;;;;;7.97;2.30;;;17.10;99.90;;;;;;5103860;28;20486;-58
2023/07/26 10:03:17;;;;;;;5.85;2.40;;;17.00;99.90;;;;;;5085103;28;20043;-58
2023/07/26 10:05:47;;;;;;;6.85;2.50;;;16.70;99.90;;;;;;5103573;28;20044;-64
2023/07/26 10:08:13;;;;;;;6.85;2.30;;;16.20;99.90;;;;;;5103668;28;20040;-63
2023/07/26 10:10:41;;;;;;;5.95;2.00;;;16.10;99.90;;;;;;5103229;28;20051;-62
2023/07/26 10:13:09;;;;;;;5.35;2.05;;;16.00;99.90;;;;;;5103922;28;20048;-61
2023/07/26 10:15:36;;;;;;;6.03;2.42;;;16.10;99.90;;;;;;5102886;28;20040;-60
2023/07/26 10:18:02;;;;;;;6.85;2.08;;;16.30;99.90;;;;;;5103444;28;20067;-60
2023/07/26 10:20:28;;;;;;;5.68;2.17;;;16.60;99.90;;;;;;5102955;28;20052;-59
2023/07/26 10:23:00;;;;;;;6.15;2.13;;;16.80;99.90;;;;;;5103601;28;20074;-59
2023/07/26 10:25:28;;;;;;;4.88;1.80;;;16.90;99.90;;;;;;5102976;28;20102;-59
2023/07/26 10:27:54;;;;;;;5.32;1.90;;;16.90;99.90;;;;;;5102995;28;20054;-59
2023/07/26 10:30:19;;;;;;;5.13;1.77;;;17.00;99.90;;;;;;5103856;28;20063;-59
2023/07/26 10:32:48;;;;;;;5.50;1.63;;;16.90;99.90;;;;;;5102357;28;20044;-59
2023/07/26 10:35:26;;;;;;;4.50;1.70;;;16.90;99.90;;;;;;5103265;28;20072;-59
2023/07/26 10:37:52;;;;;;;5.88;1.95;;;16.70;99.90;;;;;;5084590;28;20062;-59
2023/07/26 10:40:36;;;;;;;5.30;2.22;;;16.70;99.90;;;;;;5084417;28;20103;-59
2023/07/26 10:43:20;;;;;;;4.68;1.90;;;16.20;99.90;;;;;;5103792;28;20047;-58
2023/07/26 10:45:48;;;;;;;5.43;2.42;;;15.90;99.90;;;;;;5102024;28;20093;-59
2023/07/26 10:48:27;;;;;;;7.35;1.90;;;14.90;99.90;;;;;;5102821;28;20095;-70
2023/07/26 10:50:57;;;;;;;6.57;1.73;;;13.40;99.90;;;;;;5084812;28;20050;-70
2023/07/26 10:53:37;;;;;;;3.78;1.00;;;12.60;99.90;;;;;;5102105;28;20036;-69
2023/07/26 10:56:12;;;;;;;4.30;1.40;;;12.30;99.90;;;;;;5102211;28;20135;-71
2023/07/26 10:59:17;;;;;;;5.70;1.42;;;12.30;99.90;;;;;;5064233;28;20412;-65
2023/07/26 11:01:44;;;;;;;4.10;1.30;;;12.40;99.90;;;;;;5064240;28;20530;-62
2023/07/26 11:04:11;;;;;;;5.75;1.40;;;12.30;99.90;;;;;;5082527;28;20117;-61
2023/07/26 11:06:54;;;;;;;5.30;1.52;;;12.80;99.90;;;;;;5063314;28;20044;-61
2023/07/26 11:09:28;;;;;;;4.43;1.35;;;13.10;99.90;;;;;;5082358;28;20088;-61
2023/07/26 11:12:01;;;;;;;4.43;1.20;;;13.20;99.90;;;;;;5082677;28;20072;-61
2023/07/26 11:14:30;;;;;;;6.63;1.67;;;13.30;99.90;;;;;;5082363;28;20052;-61
2023/07/26 11:16:58;;;;;;;4.38;1.30;;;13.30;99.90;;;;;;5096075;28;20099;-60
2023/07/26 11:19:24;;;;;;;6.40;1.70;;;13.30;99.90;;;;;;5101717;28;20047;-60
2023/07/26 11:21:49;;;;;;;5.75;1.98;;;13.20;99.90;;;;;;5102556;28;20052;-60
2023/07/26 11:24:15;;;;;;;5.95;1.40;;;13.40;99.90;;;;;;5101469;28;20571;-59
2023/07/26 11:26:46;;;;;;;6.60;1.65;;;13.50;99.90;;;;;;5102309;28;20048;-59
2023/07/26 11:29:12;;;;;;;5.72;2.00;;;13.40;99.90;;;;;;5101832;28;20083;-59
2023/07/26 11:31:39;;;;;;;6.13;1.90;;;13.80;99.90;;;;;;5094623;28;20037;-59
2023/07/26 11:34:21;;;;;;;5.57;1.77;;;14.20;99.90;;;;;;5082042;28;20036;-58
2023/07/26 11:36:47;;;;;;;;;;;14.50;99.90;;;;;;5097024;28;20079;-59
2023/07/26 11:39:24;;;;;;;6.80;1.60;;;15.00;99.90;;;;;;5102148;28;20143;-58
2023/07/26 11:41:51;;;;;;;5.25;1.60;;;14.90;99.90;;;;;;5101140;28;20037;-57
2023/07/26 11:44:20;;;;;;;4.68;1.70;;;15.00;99.90;;;;;;5102048;28;20051;-58
2023/07/26 11:46:46;;;;;;;5.22;1.77;;;15.10;99.90;;;;;;5101383;28;20051;-58
2023/07/26 11:49:21;;;;;;;5.97;1.35;;;15.20;99.90;;;;;;5101242;28;20035;-58
2023/07/26 11:51:48;;;;;;;6.35;1.88;;;15.10;99.90;;;;;;5102042;28;20083;-58
2023/07/26 11:54:14;;;;;;;6.90;2.78;;;15.40;99.90;;;;;;5101099;28;20055;-57
2023/07/26 11:56:40;;;;;;;6.18;1.80;;;15.20;99.90;;;;;;5101358;28;20048;-58
2023/07/26 11:59:07;;;;;;;5.82;1.80;;;15.40;99.90;;;;;;5100793;28;20048;-57
2023/07/26 12:01:36;;;;;;;6.70;2.00;;;15.60;99.90;;;;;;5101300;28;20104;-58
2023/07/26 12:04:09;;;;;;;6.30;1.95;;;15.90;99.90;;;;;;5083333;28;20070;-58
2023/07/26 12:06:35;;;;;;;6.05;1.95;;;16.00;99.90;;;;;;5100337;28;20150;-58
2023/07/26 12:09:11;;;;;;;4.70;1.88;;;16.00;99.90;;;;;;5101848;28;20040;-57
2023/07/26 12:11:41;;;;;;;5.72;1.98;;;16.00;99.90;;;;;;5100605;28;20048;-58
2023/07/26 12:14:08;;;;;;;4.75;1.75;;;15.80;99.90;;;;;;5101356;28;20048;-58
2023/07/26 12:16:35;;;;;;;5.68;1.77;;;15.70;99.90;;;;;;5100837;28;20072;-57
2023/07/26 12:19:01;;;;;;;5.97;1.80;;;15.60;99.90;;;;;;5099837;28;20044;-57
2023/07/26 12:21:30;;;;;;;5.22;1.73;;;15.50;99.90;;;;;;5101408;28;20044;-58
2023/07/26 12:24:03;;;;;;;4.93;1.65;;;15.50;99.90;;;;;;5095987;28;20488;-56
2023/07/26 12:26:31;;;;;;;5.93;1.92;;;15.90;99.90;;;;;;5086823;28;20039;-59
2023/07/26 12:28:59;;;;;;;4.57;1.67;;;16.20;99.90;;;;;;5088683;28;20526;-59
2023/07/26 12:31:27;;;;;;;5.20;1.60;;;16.30;99.90;;;;;;5090999;28;20032;-57
2023/07/26 12:33:58;;;;;;;7.13;1.88;;;16.50;99.90;;;;;;5090976;28;20058;-56
2023/07/26 12:36:41;;;;;;;8.35;1.92;;;16.50;99.90;;;;;;5085607;28;20040;-57
2023/07/26 12:39:08;;;;;;;9.10;2.80;;;16.50;99.90;;;;;;5080865;28;20123;-57
2023/07/26 12:41:35;;;;;;;6.05;1.70;;;16.90;99.90;;;;;;5079876;28;20051;-56
2023/07/26 12:44:02;;;;;;;5.35;1.95;;;17.30;99.90;;;;;;5080537;28;20075;-57
2023/07/26 12:46:28;;;;;;;6.57;1.98;;;17.30;99.90;;;;;;5080075;28;20052;-57
2023/07/26 12:48:57;;;;;;;6.80;1.88;;;17.20;99.90;;;;;;5080012;28;20037;-57